createdAt,value
2019-04-14T00:00:01.163Z,96.71
2019-04-14T00:00:33.694Z,96.63
2019-04-14T00:01:05.027Z,96.71
2019-04-14T00:01:36.973Z,96.79
2019-04-14T00:02:09.637Z,96.99
2019-04-14T00:02:40.978Z,97.08
2019-04-14T00:03:12.987Z,97.13
2019-04-14T00:03:45.343Z,96.97
2019-04-14T00:04:16.841Z,96.69
2019-04-14T00:04:50.699Z,96.70
2019-04-14T00:05:23.191Z,96.81
2019-04-14T00:05:56.042Z,96.96
2019-04-14T00:06:28.659Z,96.80
2019-04-14T00:06:59.875Z,96.74
2019-04-14T00:07:31.903Z,96.63
2019-04-14T00:08:03.184Z,96.61
2019-04-14T00:08:34.808Z,96.70
2019-04-14T00:09:06.066Z,96.83
2019-04-14T00:09:38.030Z,96.90
2019-04-14T00:10:09.473Z,96.86
2019-04-14T00:10:40.653Z,96.84
2019-04-14T00:11:12.595Z,96.39
2019-04-14T00:11:43.946Z,96.24
2019-04-14T00:12:16.433Z,96.27
2019-04-14T00:12:47.767Z,96.44
2019-04-14T00:13:19.585Z,96.38
2019-04-14T00:13:50.886Z,96.41
2019-04-14T00:14:22.928Z,96.44
2019-04-14T00:14:55.408Z,96.52
2019-04-14T00:15:34.383Z,96.68
2019-04-14T00:16:00.923Z,96.84
2019-04-14T00:16:33.405Z,96.92
2019-04-14T00:17:05.000Z,96.88
2019-04-14T00:17:36.939Z,96.84
2019-04-14T00:18:08.265Z,96.83
2019-04-14T00:18:40.438Z,96.74
2019-04-14T00:19:13.044Z,96.48
2019-04-14T00:19:45.655Z,96.34
2019-04-14T00:20:16.967Z,96.29
2019-04-14T00:20:49.165Z,96.20
2019-04-14T00:21:21.530Z,96.19
2019-04-14T00:21:52.834Z,96.02
2019-04-14T00:22:27.486Z,95.70
2019-04-14T00:22:57.601Z,95.56
2019-04-14T00:23:28.999Z,95.23
2019-04-14T00:24:00.861Z,94.90
2019-04-14T00:24:33.479Z,94.83
2019-04-14T00:25:04.840Z,94.85
2019-04-14T00:25:37.016Z,94.80
2019-04-14T00:26:09.416Z,94.87
2019-04-14T00:26:40.791Z,94.94
2019-04-14T00:27:12.840Z,95.05
2019-04-14T00:27:45.276Z,95.48
2019-04-14T00:28:16.564Z,94.96
2019-04-14T00:28:48.996Z,94.57
2019-04-14T00:29:21.642Z,94.39
2019-04-14T00:29:52.958Z,94.45
2019-04-14T00:30:25.156Z,94.65
2019-04-14T00:30:56.635Z,94.83
2019-04-14T00:31:28.858Z,95.13
2019-04-14T00:32:00.889Z,95.05
2019-04-14T00:32:33.373Z,94.86
2019-04-14T00:33:04.696Z,94.98
2019-04-14T00:33:36.691Z,95.20
2019-04-14T00:34:09.231Z,95.51
2019-04-14T00:34:40.596Z,95.20
2019-04-14T00:35:12.466Z,94.71
2019-04-14T00:35:44.832Z,94.64
2019-04-14T00:36:17.515Z,94.51
2019-04-14T00:36:50.123Z,94.41
2019-04-14T00:37:22.747Z,94.51
2019-04-14T00:37:54.084Z,94.70
2019-04-14T00:38:25.996Z,94.88
2019-04-14T00:38:58.320Z,95.12
2019-04-14T00:39:29.804Z,94.72
2019-04-14T00:40:01.963Z,94.70
2019-04-14T00:40:34.594Z,94.98
2019-04-14T00:41:07.099Z,95.25
2019-04-14T00:41:44.890Z,94.71
2019-04-14T00:42:12.611Z,94.36
2019-04-14T00:42:45.130Z,94.31
2019-04-14T00:43:16.427Z,94.51
2019-04-14T00:43:48.472Z,94.74
2019-04-14T00:44:20.993Z,94.88
2019-04-14T00:44:52.255Z,94.78
2019-04-14T00:45:36.121Z,94.70
2019-04-14T00:45:59.333Z,94.63
2019-04-14T00:46:31.297Z,94.67
2019-04-14T00:47:02.870Z,94.72
2019-04-14T00:47:35.292Z,94.33
2019-04-14T00:48:11.759Z,94.45
2019-04-14T00:48:40.943Z,94.75
2019-04-14T00:49:13.498Z,94.97
2019-04-14T00:49:46.153Z,95.12
2019-04-14T00:50:17.529Z,94.92
2019-04-14T00:50:49.596Z,94.78
2019-04-14T00:51:21.998Z,94.71
2019-04-14T00:51:53.452Z,94.62
2019-04-14T00:52:25.448Z,94.78
2019-04-14T00:52:56.777Z,94.92
2019-04-14T00:53:27.997Z,94.70
2019-04-14T00:54:00.197Z,94.77
2019-04-14T00:54:32.512Z,94.66
2019-04-14T00:55:03.832Z,94.75
2019-04-14T00:55:35.767Z,94.82
2019-04-14T00:56:08.264Z,94.89
2019-04-14T00:56:39.632Z,94.92
2019-04-14T00:57:11.556Z,94.99
2019-04-14T00:57:43.856Z,95.09
2019-04-14T00:58:15.399Z,95.09
2019-04-14T00:58:47.541Z,95.07
2019-04-14T00:59:20.003Z,95.11
2019-04-14T00:59:51.415Z,95.12
2019-04-14T01:00:23.377Z,95.11
2019-04-14T01:00:55.754Z,95.18
2019-04-14T01:01:27.143Z,95.17
2019-04-14T01:01:59.164Z,95.36
2019-04-14T01:02:31.778Z,95.25
2019-04-14T01:03:03.011Z,94.89
2019-04-14T01:03:35.168Z,94.87
2019-04-14T01:04:07.639Z,94.80
2019-04-14T01:04:38.908Z,94.64
2019-04-14T01:05:10.899Z,94.66
2019-04-14T01:05:42.220Z,94.81
2019-04-14T01:06:14.255Z,94.79
2019-04-14T01:06:46.832Z,94.70
2019-04-14T01:07:19.428Z,94.42
2019-04-14T01:07:50.827Z,94.39
2019-04-14T01:08:22.753Z,94.45
2019-04-14T01:08:55.305Z,94.54
2019-04-14T01:09:26.800Z,94.40
2019-04-14T01:09:57.973Z,94.28
2019-04-14T01:10:30.046Z,94.38
2019-04-14T01:11:01.401Z,94.29
2019-04-14T01:11:33.519Z,94.15
2019-04-14T01:12:05.965Z,94.02
2019-04-14T01:12:37.381Z,94.00
2019-04-14T01:13:11.105Z,94.04
2019-04-14T01:13:41.825Z,94.02
2019-04-14T01:14:13.220Z,93.90
2019-04-14T01:14:45.291Z,93.93
2019-04-14T01:15:17.684Z,94.04
2019-04-14T01:15:58.720Z,94.18
2019-04-14T01:16:23.760Z,94.07
2019-04-14T01:16:55.864Z,93.89
2019-04-14T01:17:27.189Z,93.91
2019-04-14T01:17:59.263Z,93.96
2019-04-14T01:18:31.928Z,93.72
2019-04-14T01:19:03.293Z,93.47
2019-04-14T01:19:35.244Z,93.43
2019-04-14T01:20:07.826Z,93.12
2019-04-14T01:20:39.148Z,92.92
2019-04-14T01:21:11.046Z,92.85
2019-04-14T01:21:43.510Z,92.84
2019-04-14T01:22:16.270Z,93.03
2019-04-14T01:22:48.759Z,93.13
2019-04-14T01:23:21.427Z,93.08
2019-04-14T01:23:52.886Z,92.95
2019-04-14T01:24:24.993Z,92.84
2019-04-14T01:24:57.468Z,92.81
2019-04-14T01:25:28.808Z,92.97
2019-04-14T01:26:00.656Z,92.83
2019-04-14T01:26:33.138Z,92.79
2019-04-14T01:27:04.383Z,92.69
2019-04-14T01:27:36.334Z,92.09
2019-04-14T01:28:08.873Z,91.47
2019-04-14T01:28:40.178Z,90.67
2019-04-14T01:29:12.295Z,90.47
2019-04-14T01:29:44.820Z,90.00
2019-04-14T01:30:16.103Z,89.77
2019-04-14T01:30:48.021Z,89.63
2019-04-14T01:31:20.543Z,88.94
2019-04-14T01:31:51.870Z,88.60
2019-04-14T01:32:24.083Z,88.17
2019-04-14T01:32:56.426Z,88.39
2019-04-14T01:33:27.775Z,88.06
2019-04-14T01:33:59.779Z,88.17
2019-04-14T01:34:32.332Z,87.94
2019-04-14T01:35:03.656Z,87.34
2019-04-14T01:35:35.748Z,87.37
2019-04-14T01:36:08.095Z,88.30
2019-04-14T01:36:39.513Z,89.13
2019-04-14T01:37:11.556Z,88.94
2019-04-14T01:37:44.031Z,89.48
2019-04-14T01:38:15.407Z,88.80
2019-04-14T01:38:47.128Z,87.73
2019-04-14T01:39:19.741Z,87.77
2019-04-14T01:39:52.398Z,88.06
2019-04-14T01:40:24.846Z,88.17
2019-04-14T01:40:56.200Z,87.60
2019-04-14T01:41:28.233Z,87.57
2019-04-14T01:42:00.620Z,87.15
2019-04-14T01:42:32.012Z,87.07
2019-04-14T01:43:03.853Z,87.01
2019-04-14T01:43:36.319Z,86.95
2019-04-14T01:44:07.691Z,86.67
2019-04-14T01:44:39.592Z,86.71
2019-04-14T01:45:12.094Z,86.87
2019-04-14T01:45:43.489Z,86.76
2019-04-14T01:46:20.891Z,86.75
2019-04-14T01:46:47.839Z,86.99
2019-04-14T01:47:19.057Z,86.96
2019-04-14T01:47:51.114Z,87.46
2019-04-14T01:48:23.499Z,87.53
2019-04-14T01:48:54.918Z,87.38
2019-04-14T01:49:26.863Z,87.09
2019-04-14T01:49:59.396Z,87.31
2019-04-14T01:50:30.856Z,87.09
2019-04-14T01:51:02.713Z,87.36
2019-04-14T01:51:35.191Z,87.20
2019-04-14T01:52:06.449Z,87.18
2019-04-14T01:52:38.476Z,87.27
2019-04-14T01:53:09.777Z,86.89
2019-04-14T01:53:42.143Z,86.35
2019-04-14T01:54:13.496Z,87.00
2019-04-14T01:54:45.278Z,87.10
2019-04-14T01:55:17.770Z,87.03
2019-04-14T01:55:48.998Z,87.28
2019-04-14T01:56:20.874Z,86.70
2019-04-14T01:56:53.392Z,87.00
2019-04-14T01:57:24.938Z,87.41
2019-04-14T01:57:56.836Z,87.57
2019-04-14T01:58:29.297Z,87.88
2019-04-14T01:59:00.671Z,88.16
2019-04-14T01:59:32.645Z,87.51
2019-04-14T02:00:03.989Z,88.19
2019-04-14T02:00:35.883Z,88.37
2019-04-14T02:01:08.326Z,88.35
2019-04-14T02:01:41.041Z,88.22
2019-04-14T02:02:12.407Z,88.29
2019-04-14T02:02:44.330Z,88.38
2019-04-14T02:03:15.607Z,88.16
2019-04-14T02:03:47.762Z,87.92
2019-04-14T02:04:20.266Z,87.88
2019-04-14T02:04:52.821Z,87.73
2019-04-14T02:05:24.219Z,87.46
2019-04-14T02:05:56.087Z,87.30
2019-04-14T02:06:28.689Z,87.12
2019-04-14T02:07:00.054Z,87.17
2019-04-14T02:07:31.932Z,87.33
2019-04-14T02:08:04.389Z,87.31
2019-04-14T02:08:35.787Z,87.31
2019-04-14T02:09:07.544Z,87.33
2019-04-14T02:09:40.023Z,87.34
2019-04-14T02:10:11.412Z,87.34
2019-04-14T02:10:43.497Z,87.41
2019-04-14T02:11:15.858Z,87.40
2019-04-14T02:11:47.192Z,87.48
2019-04-14T02:12:19.219Z,87.48
2019-04-14T02:12:51.481Z,87.45
2019-04-14T02:13:23.063Z,87.46
2019-04-14T02:13:55.060Z,87.43
2019-04-14T02:14:27.676Z,87.36
2019-04-14T02:15:00.232Z,87.40
2019-04-14T02:15:32.956Z,87.63
2019-04-14T02:16:15.021Z,88.19
2019-04-14T02:16:41.923Z,88.10
2019-04-14T02:17:11.175Z,87.97
2019-04-14T02:17:43.801Z,87.91
2019-04-14T02:18:16.284Z,87.92
2019-04-14T02:18:50.656Z,87.63
2019-04-14T02:19:21.939Z,87.02
2019-04-14T02:19:54.534Z,86.92
2019-04-14T02:20:27.145Z,86.66
2019-04-14T02:20:59.889Z,86.66
2019-04-14T02:21:32.310Z,86.40
2019-04-14T02:22:03.667Z,86.40
2019-04-14T02:22:35.578Z,86.40
2019-04-14T02:23:08.135Z,86.41
2019-04-14T02:23:41.112Z,86.33
2019-04-14T02:24:13.521Z,85.89
2019-04-14T02:24:45.979Z,85.81
2019-04-14T02:25:17.259Z,85.93
2019-04-14T02:25:49.408Z,86.06
2019-04-14T02:26:21.913Z,86.08
2019-04-14T02:26:53.238Z,85.50
2019-04-14T02:27:25.333Z,84.53
2019-04-14T02:27:57.889Z,84.71
2019-04-14T02:28:29.209Z,84.92
2019-04-14T02:29:01.424Z,84.91
2019-04-14T02:29:33.917Z,84.74
2019-04-14T02:30:08.925Z,84.81
2019-04-14T02:30:47.037Z,85.04
2019-04-14T02:31:24.611Z,85.77
2019-04-14T02:32:13.685Z,85.99
2019-04-14T02:32:42.607Z,86.21
2019-04-14T02:33:46.599Z,86.26
2019-04-14T02:33:50.613Z,86.16
2019-04-14T02:34:26.045Z,85.46
2019-04-14T02:35:13.166Z,84.59
2019-04-14T02:35:28.529Z,84.24
2019-04-14T02:36:06.334Z,84.09
2019-04-14T02:37:12.408Z,83.63
2019-04-14T02:37:45.156Z,82.88
2019-04-14T02:38:23.314Z,81.92
2019-04-14T02:39:22.521Z,83.00
2019-04-14T02:39:53.988Z,83.37
2019-04-14T02:40:27.303Z,83.46
2019-04-14T02:42:20.923Z,83.94
2019-04-14T02:43:17.658Z,81.71
2019-04-14T02:43:48.189Z,81.65
2019-04-14T02:45:29.842Z,82.01
2019-04-14T02:46:31.815Z,83.12
2019-04-14T02:47:15.033Z,83.17
2019-04-14T02:48:20.453Z,83.80
2019-04-14T02:48:44.257Z,83.71
2019-04-14T02:49:16.809Z,83.75
2019-04-14T02:49:51.524Z,83.84
2019-04-14T02:50:18.356Z,84.08
2019-04-14T02:50:49.615Z,84.22
2019-04-14T02:51:58.299Z,84.87
2019-04-14T02:52:30.047Z,85.64
2019-04-14T02:53:07.392Z,85.21
2019-04-14T02:55:10.659Z,83.32
2019-04-14T02:55:49.468Z,82.09
2019-04-14T02:56:25.187Z,80.29
2019-04-14T02:56:52.944Z,79.99
2019-04-14T02:57:26.872Z,80.37
2019-04-14T02:58:03.080Z,80.66
2019-04-14T02:58:38.421Z,81.50
2019-04-14T02:59:43.106Z,81.89
2019-04-14T03:00:19.548Z,79.00
2019-04-14T03:01:31.210Z,79.96
2019-04-14T03:02:35.474Z,80.47
2019-04-14T03:02:47.472Z,81.30
2019-04-14T03:04:01.615Z,82.87
2019-04-14T03:04:33.521Z,82.99
2019-04-14T03:05:05.493Z,82.36
2019-04-14T03:05:45.083Z,82.32
2019-04-14T03:06:12.172Z,82.36
2019-04-14T03:06:48.132Z,82.67
2019-04-14T03:07:21.945Z,83.28
2019-04-14T03:07:51.445Z,83.78
2019-04-14T03:08:23.647Z,84.26
2019-04-14T03:09:37.947Z,84.54
2019-04-14T03:10:03.167Z,84.81
2019-04-14T03:10:40.248Z,84.85
2019-04-14T03:11:11.852Z,84.85
2019-04-14T03:11:46.252Z,85.23
2019-04-14T03:12:16.335Z,84.86
2019-04-14T03:12:46.583Z,84.09
2019-04-14T03:13:27.164Z,83.80
2019-04-14T03:13:51.430Z,83.88
2019-04-14T03:14:30.909Z,84.06
2019-04-14T03:15:01.438Z,83.83
2019-04-14T03:15:39.619Z,83.76
2019-04-14T03:16:09.697Z,83.07
2019-04-14T03:16:47.111Z,82.64
2019-04-14T03:17:52.917Z,83.00
2019-04-14T03:18:33.753Z,83.30
2019-04-14T03:18:50.622Z,83.83
2019-04-14T03:19:25.005Z,84.31
2019-04-14T03:20:05.288Z,85.11
2019-04-14T03:21:03.518Z,86.02
2019-04-14T03:21:38.165Z,86.30
2019-04-14T03:22:14.105Z,85.98
2019-04-14T03:23:19.079Z,84.69
2019-04-14T03:23:48.893Z,84.72
2019-04-14T03:24:25.016Z,84.76
2019-04-14T03:24:39.338Z,85.22
2019-04-14T03:25:17.176Z,86.03
2019-04-14T03:25:59.424Z,86.21
2019-04-14T03:26:27.559Z,86.69
2019-04-14T03:27:05.770Z,87.35
2019-04-14T03:27:43.778Z,88.02
2019-04-14T03:28:13.802Z,88.16
2019-04-14T03:28:51.433Z,87.59
2019-04-14T03:29:17.020Z,86.75
2019-04-14T03:29:52.005Z,85.37
2019-04-14T03:30:51.662Z,85.93
2019-04-14T03:31:12.209Z,86.30
2019-04-14T03:31:51.950Z,86.34
2019-04-14T03:32:13.016Z,86.02
2019-04-14T03:32:53.217Z,85.79
2019-04-14T03:34:11.088Z,85.60
2019-04-14T03:34:55.880Z,85.64
2019-04-14T03:35:58.079Z,85.72
2019-04-14T03:36:16.890Z,85.82
2019-04-14T03:37:11.356Z,85.93
2019-04-14T03:37:46.939Z,86.33
2019-04-14T03:38:15.884Z,86.58
2019-04-14T03:38:50.291Z,86.64
2019-04-14T03:39:10.513Z,86.58
2019-04-14T03:39:51.852Z,86.38
2019-04-14T03:40:18.266Z,86.27
2019-04-14T03:40:50.605Z,85.50
2019-04-14T03:41:25.753Z,83.74
2019-04-14T03:41:58.218Z,83.01
2019-04-14T03:42:31.754Z,81.78
2019-04-14T03:43:01.389Z,81.41
2019-04-14T03:43:33.205Z,81.38
2019-04-14T03:44:07.187Z,80.53
2019-04-14T03:44:41.351Z,80.35
2019-04-14T03:45:14.409Z,80.54
2019-04-14T03:45:59.301Z,80.63
2019-04-14T03:46:25.506Z,80.59
2019-04-14T03:46:49.334Z,80.58
2019-04-14T03:47:28.598Z,81.17
2019-04-14T03:48:16.967Z,81.42
2019-04-14T03:49:13.890Z,80.39
2019-04-14T03:49:40.736Z,78.93
2019-04-14T03:50:17.503Z,78.59
2019-04-14T03:50:55.527Z,79.10
2019-04-14T03:51:17.510Z,79.15
2019-04-14T03:51:58.758Z,78.79
2019-04-14T03:52:22.140Z,78.75
2019-04-14T03:53:37.687Z,79.81
2019-04-14T03:53:58.710Z,79.51
2019-04-14T03:54:27.330Z,78.77
2019-04-14T03:54:58.534Z,79.00
2019-04-14T03:55:25.054Z,79.53
2019-04-14T03:55:49.403Z,81.71
2019-04-14T03:56:19.338Z,81.74
2019-04-14T03:56:51.203Z,81.60
2019-04-14T03:57:23.653Z,81.14
2019-04-14T03:57:56.259Z,81.05
2019-04-14T03:58:27.691Z,81.25
2019-04-14T03:58:59.831Z,79.86
2019-04-14T03:59:32.312Z,78.97
2019-04-14T04:00:03.605Z,79.00
2019-04-14T04:00:35.666Z,79.49
2019-04-14T04:01:06.941Z,79.47
2019-04-14T04:01:39.118Z,80.03
2019-04-14T04:02:11.725Z,79.81
2019-04-14T04:02:43.039Z,78.73
2019-04-14T04:03:15.200Z,78.88
2019-04-14T04:03:47.775Z,79.04
2019-04-14T04:04:20.420Z,79.41
2019-04-14T04:04:51.977Z,79.56
2019-04-14T04:05:23.808Z,79.24
2019-04-14T04:05:56.322Z,79.28
2019-04-14T04:06:27.588Z,79.36
2019-04-14T04:06:59.622Z,79.70
2019-04-14T04:07:32.178Z,80.01
2019-04-14T04:08:03.557Z,80.01
2019-04-14T04:08:35.490Z,80.06
2019-04-14T04:09:06.761Z,80.54
2019-04-14T04:09:38.892Z,80.68
2019-04-14T04:10:11.449Z,80.36
2019-04-14T04:10:42.799Z,80.45
2019-04-14T04:11:15.033Z,80.30
2019-04-14T04:11:47.559Z,79.66
2019-04-14T04:12:18.889Z,80.16
2019-04-14T04:12:51.095Z,79.92
2019-04-14T04:13:23.656Z,79.92
2019-04-14T04:13:56.265Z,80.00
2019-04-14T04:14:27.641Z,80.04
2019-04-14T04:14:59.664Z,79.85
2019-04-14T04:15:32.101Z,79.90
2019-04-14T04:16:03.450Z,79.83
2019-04-14T04:16:35.518Z,79.89
2019-04-14T04:17:07.868Z,79.77
2019-04-14T04:17:39.232Z,79.08
2019-04-14T04:18:11.323Z,79.45
2019-04-14T04:18:51.260Z,79.50
2019-04-14T04:19:18.269Z,79.76
2019-04-14T04:19:49.196Z,80.11
2019-04-14T04:20:21.656Z,80.33
2019-04-14T04:20:53.051Z,80.39
2019-04-14T04:21:24.836Z,80.62
2019-04-14T04:21:57.210Z,81.63
2019-04-14T04:22:28.632Z,81.86
2019-04-14T04:23:00.851Z,82.46
2019-04-14T04:23:33.433Z,82.19
2019-04-14T04:24:04.756Z,81.67
2019-04-14T04:24:37.007Z,81.34
2019-04-14T04:25:09.442Z,81.18
2019-04-14T04:25:42.090Z,80.75
2019-04-14T04:26:14.480Z,80.31
2019-04-14T04:26:47.147Z,80.01
2019-04-14T04:27:18.482Z,78.86
2019-04-14T04:27:50.493Z,77.04
2019-04-14T04:28:21.818Z,76.89
2019-04-14T04:28:54.020Z,77.27
2019-04-14T04:29:26.568Z,77.67
2019-04-14T04:29:59.122Z,78.21
2019-04-14T04:30:30.456Z,78.10
2019-04-14T04:31:02.422Z,78.43
2019-04-14T04:31:33.641Z,79.08
2019-04-14T04:32:05.669Z,78.86
2019-04-14T04:32:36.934Z,79.62
2019-04-14T04:33:08.690Z,79.80
2019-04-14T04:33:40.072Z,78.32
2019-04-14T04:34:11.925Z,78.53
2019-04-14T04:34:44.560Z,78.79
2019-04-14T04:35:15.851Z,79.05
2019-04-14T04:35:47.889Z,79.09
2019-04-14T04:36:20.322Z,79.83
2019-04-14T04:36:51.668Z,79.54
2019-04-14T04:37:23.576Z,79.94
2019-04-14T04:37:54.867Z,80.01
2019-04-14T04:38:26.903Z,80.36
2019-04-14T04:38:59.332Z,79.78
2019-04-14T04:39:33.746Z,79.78
2019-04-14T04:40:04.970Z,80.18
2019-04-14T04:40:37.490Z,80.10
2019-04-14T04:41:10.036Z,79.99
2019-04-14T04:41:41.427Z,80.25
2019-04-14T04:42:13.314Z,80.31
2019-04-14T04:42:45.786Z,80.37
2019-04-14T04:43:17.132Z,78.83
2019-04-14T04:43:49.369Z,76.47
2019-04-14T04:44:20.711Z,77.22
2019-04-14T04:44:53.151Z,78.84
2019-04-14T04:45:25.686Z,79.41
2019-04-14T04:45:58.042Z,80.62
2019-04-14T04:46:29.316Z,80.68
2019-04-14T04:47:01.232Z,79.97
2019-04-14T04:47:33.708Z,79.96
2019-04-14T04:48:05.000Z,79.52
2019-04-14T04:48:37.090Z,78.29
2019-04-14T04:49:15.130Z,78.31
2019-04-14T04:49:42.511Z,78.93
2019-04-14T04:50:14.972Z,79.45
2019-04-14T04:50:46.285Z,79.45
2019-04-14T04:51:18.230Z,79.34
2019-04-14T04:51:50.752Z,79.41
2019-04-14T04:52:22.058Z,78.97
2019-04-14T04:52:54.008Z,78.44
2019-04-14T04:53:26.585Z,78.15
2019-04-14T04:53:57.999Z,78.37
2019-04-14T04:54:30.115Z,76.37
2019-04-14T04:55:02.599Z,77.14
2019-04-14T04:55:33.812Z,76.42
2019-04-14T04:56:05.755Z,77.16
2019-04-14T04:56:38.156Z,77.61
2019-04-14T04:57:09.518Z,78.20
2019-04-14T04:57:41.589Z,78.45
2019-04-14T04:58:12.940Z,78.82
2019-04-14T04:58:44.193Z,78.17
2019-04-14T04:59:15.415Z,77.67
2019-04-14T04:59:47.423Z,76.74
2019-04-14T05:00:19.951Z,76.31
2019-04-14T05:00:53.913Z,76.22
2019-04-14T05:01:25.265Z,76.18
2019-04-14T05:01:56.634Z,76.59
2019-04-14T05:02:28.786Z,78.08
2019-04-14T05:03:00.036Z,77.81
2019-04-14T05:03:31.831Z,77.64
2019-04-14T05:04:03.073Z,76.69
2019-04-14T05:04:35.091Z,77.42
2019-04-14T05:05:06.364Z,77.71
2019-04-14T05:05:38.461Z,77.54
2019-04-14T05:06:09.774Z,77.90
2019-04-14T05:06:41.637Z,78.18
2019-04-14T05:07:12.956Z,78.23
2019-04-14T05:07:44.845Z,77.78
2019-04-14T05:08:17.311Z,76.40
2019-04-14T05:08:48.699Z,74.98
2019-04-14T05:09:20.982Z,75.18
2019-04-14T05:09:53.411Z,76.39
2019-04-14T05:10:24.758Z,76.70
2019-04-14T05:10:56.760Z,76.97
2019-04-14T05:11:27.958Z,77.23
2019-04-14T05:12:00.301Z,77.13
2019-04-14T05:12:32.696Z,77.14
2019-04-14T05:13:05.058Z,77.05
2019-04-14T05:13:36.363Z,76.94
2019-04-14T05:14:08.696Z,76.76
2019-04-14T05:14:41.185Z,76.76
2019-04-14T05:15:12.515Z,76.85
2019-04-14T05:15:44.598Z,77.35
2019-04-14T05:16:16.882Z,77.26
2019-04-14T05:16:48.594Z,77.12
2019-04-14T05:17:19.738Z,77.58
2019-04-14T05:17:51.728Z,78.03
2019-04-14T05:18:23.122Z,77.46
2019-04-14T05:18:55.211Z,77.85
2019-04-14T05:19:31.852Z,78.27
2019-04-14T05:20:00.710Z,78.85
2019-04-14T05:20:32.043Z,78.70
2019-04-14T05:21:03.971Z,78.18
2019-04-14T05:21:35.221Z,78.10
2019-04-14T05:22:07.011Z,78.27
2019-04-14T05:22:38.293Z,79.13
2019-04-14T05:23:10.204Z,79.64
2019-04-14T05:23:41.558Z,79.58
2019-04-14T05:24:13.616Z,78.96
2019-04-14T05:24:46.083Z,78.82
2019-04-14T05:25:17.386Z,79.71
2019-04-14T05:25:49.512Z,78.79
2019-04-14T05:26:21.973Z,79.53
2019-04-14T05:26:53.297Z,80.09
2019-04-14T05:27:25.416Z,79.58
2019-04-14T05:27:57.953Z,80.40
2019-04-14T05:28:29.255Z,79.04
2019-04-14T05:29:01.439Z,79.57
2019-04-14T05:29:33.986Z,79.88
2019-04-14T05:30:05.282Z,79.58
2019-04-14T05:30:37.171Z,79.73
2019-04-14T05:31:09.717Z,80.13
2019-04-14T05:31:41.042Z,80.04
2019-04-14T05:32:13.021Z,80.13
2019-04-14T05:32:45.444Z,79.58
2019-04-14T05:33:16.760Z,79.91
2019-04-14T05:33:49.003Z,79.97
2019-04-14T05:34:21.359Z,80.68
2019-04-14T05:34:52.717Z,80.39
2019-04-14T05:35:24.868Z,79.87
2019-04-14T05:35:57.427Z,80.31
2019-04-14T05:36:28.751Z,79.61
2019-04-14T05:37:00.665Z,79.62
2019-04-14T05:37:31.932Z,79.54
2019-04-14T05:38:04.204Z,78.54
2019-04-14T05:38:36.680Z,79.31
2019-04-14T05:39:08.972Z,79.93
2019-04-14T05:39:40.250Z,79.20
2019-04-14T05:40:12.416Z,78.15
2019-04-14T05:40:44.978Z,78.26
2019-04-14T05:41:16.313Z,78.30
2019-04-14T05:41:58.109Z,78.63
2019-04-14T05:42:25.169Z,79.29
2019-04-14T05:42:53.742Z,79.02
2019-04-14T05:43:30.458Z,78.78
2019-04-14T05:44:01.168Z,79.45
2019-04-14T05:44:31.887Z,79.53
2019-04-14T05:45:04.376Z,78.46
2019-04-14T05:45:35.707Z,78.94
2019-04-14T05:46:07.728Z,79.70
2019-04-14T05:46:40.265Z,79.84
2019-04-14T05:47:11.560Z,79.27
2019-04-14T05:47:43.654Z,79.29
2019-04-14T05:48:15.987Z,79.71
2019-04-14T05:48:47.368Z,80.10
2019-04-14T05:49:28.549Z,79.63
2019-04-14T05:49:54.680Z,79.04
2019-04-14T05:50:24.896Z,78.81
2019-04-14T05:50:56.206Z,78.93
2019-04-14T05:51:28.406Z,78.62
2019-04-14T05:51:59.688Z,79.66
2019-04-14T05:52:31.872Z,79.31
2019-04-14T05:53:04.263Z,79.81
2019-04-14T05:53:35.628Z,80.68
2019-04-14T05:54:07.832Z,79.39
2019-04-14T05:54:40.346Z,79.67
2019-04-14T05:55:11.692Z,79.17
2019-04-14T05:55:43.830Z,79.67
2019-04-14T05:56:16.359Z,79.60
2019-04-14T05:56:47.722Z,80.33
2019-04-14T05:57:19.878Z,80.84
2019-04-14T05:57:52.371Z,80.68
2019-04-14T05:58:23.697Z,80.65
2019-04-14T05:58:55.764Z,80.03
2019-04-14T05:59:28.605Z,79.76
2019-04-14T05:59:59.863Z,79.95
2019-04-14T06:00:32.080Z,79.61
2019-04-14T06:01:04.513Z,80.17
2019-04-14T06:01:36.610Z,79.56
2019-04-14T06:02:07.946Z,79.85
2019-04-14T06:02:39.979Z,80.02
2019-04-14T06:03:12.350Z,80.02
2019-04-14T06:03:43.741Z,81.23
2019-04-14T06:04:15.673Z,81.62
2019-04-14T06:04:48.160Z,80.25
2019-04-14T06:05:21.054Z,79.86
2019-04-14T06:05:52.466Z,79.71
2019-04-14T06:06:23.714Z,79.51
2019-04-14T06:06:54.939Z,79.44
2019-04-14T06:07:26.138Z,79.68
2019-04-14T06:07:57.368Z,79.89
2019-04-14T06:08:28.562Z,79.56
2019-04-14T06:08:59.816Z,79.55
2019-04-14T06:09:31.014Z,80.20
2019-04-14T06:10:02.223Z,78.89
2019-04-14T06:10:33.411Z,79.36
2019-04-14T06:11:04.630Z,80.20
2019-04-14T06:11:35.820Z,79.77
2019-04-14T06:12:07.040Z,79.58
2019-04-14T06:12:38.259Z,80.89
2019-04-14T06:13:11.678Z,79.54
2019-04-14T06:13:42.446Z,79.99
2019-04-14T06:14:13.641Z,81.74
2019-04-14T06:14:44.846Z,81.41
2019-04-14T06:15:16.071Z,80.51
2019-04-14T06:15:47.253Z,80.84
2019-04-14T06:16:18.446Z,81.25
2019-04-14T06:16:49.655Z,81.11
2019-04-14T06:17:20.870Z,80.04
2019-04-14T06:17:52.112Z,79.65
2019-04-14T06:18:23.312Z,79.93
2019-04-14T06:18:54.513Z,80.09
2019-04-14T06:19:36.416Z,78.96
2019-04-14T06:20:03.556Z,78.68
2019-04-14T06:20:34.485Z,79.02
2019-04-14T06:21:05.686Z,79.98
2019-04-14T06:21:36.892Z,80.22
2019-04-14T06:22:08.088Z,80.30
2019-04-14T06:22:39.298Z,79.28
2019-04-14T06:23:10.496Z,79.49
2019-04-14T06:23:41.734Z,80.45
2019-04-14T06:24:12.946Z,80.21
2019-04-14T06:24:44.200Z,79.08
2019-04-14T06:25:15.417Z,78.95
2019-04-14T06:25:46.591Z,79.55
2019-04-14T06:26:17.802Z,80.01
2019-04-14T06:26:48.991Z,79.17
2019-04-14T06:27:20.242Z,79.24
2019-04-14T06:27:51.445Z,80.18
2019-04-14T06:28:22.643Z,79.73
2019-04-14T06:28:53.917Z,79.35
2019-04-14T06:29:25.139Z,79.22
2019-04-14T06:29:56.389Z,79.01
2019-04-14T06:30:27.591Z,79.75
2019-04-14T06:30:58.802Z,79.93
2019-04-14T06:31:30.053Z,79.58
2019-04-14T06:32:01.258Z,77.87
2019-04-14T06:32:32.462Z,77.76
2019-04-14T06:33:03.734Z,78.11
2019-04-14T06:33:35.924Z,78.91
2019-04-14T06:34:07.128Z,80.86
2019-04-14T06:34:38.325Z,80.53
2019-04-14T06:35:09.549Z,79.37
2019-04-14T06:35:40.750Z,78.72
2019-04-14T06:36:11.996Z,77.55
2019-04-14T06:36:43.184Z,78.10
2019-04-14T06:37:14.385Z,76.94
2019-04-14T06:37:45.620Z,76.98
2019-04-14T06:38:16.820Z,78.18
2019-04-14T06:38:48.026Z,79.28
2019-04-14T06:39:19.232Z,79.87
2019-04-14T06:39:50.449Z,79.52
2019-04-14T06:40:21.659Z,77.61
2019-04-14T06:40:52.907Z,78.66
2019-04-14T06:41:24.108Z,77.87
2019-04-14T06:41:55.306Z,77.66
2019-04-14T06:42:26.505Z,77.29
2019-04-14T06:42:57.722Z,77.33
2019-04-14T06:43:28.936Z,76.43
2019-04-14T06:44:00.130Z,76.13
2019-04-14T06:44:31.326Z,76.34
2019-04-14T06:45:02.529Z,77.32
2019-04-14T06:45:33.738Z,78.06
2019-04-14T06:46:04.972Z,77.53
2019-04-14T06:46:36.257Z,77.57
2019-04-14T06:47:07.546Z,77.28
2019-04-14T06:47:38.760Z,76.28
2019-04-14T06:48:09.962Z,76.06
2019-04-14T06:48:41.165Z,75.99
2019-04-14T06:49:12.366Z,76.61
2019-04-14T06:49:49.163Z,77.25
2019-04-14T06:50:16.490Z,77.48
2019-04-14T06:50:47.714Z,77.49
2019-04-14T06:51:18.929Z,77.31
2019-04-14T06:51:50.123Z,77.15
2019-04-14T06:52:21.406Z,77.26
2019-04-14T06:52:52.601Z,77.26
2019-04-14T06:53:23.808Z,77.96
2019-04-14T06:53:55.010Z,78.53
2019-04-14T06:54:26.216Z,78.79
2019-04-14T06:54:57.401Z,78.64
2019-04-14T06:55:28.607Z,79.27
2019-04-14T06:55:59.829Z,78.77
2019-04-14T06:56:31.047Z,79.51
2019-04-14T06:57:02.241Z,80.11
2019-04-14T06:57:33.499Z,79.45
2019-04-14T06:58:04.702Z,79.09
2019-04-14T06:58:35.919Z,78.79
2019-04-14T06:59:07.134Z,78.85
2019-04-14T06:59:38.345Z,79.27
2019-04-14T07:00:09.554Z,79.53
2019-04-14T07:00:40.755Z,79.56
2019-04-14T07:01:11.979Z,80.13
2019-04-14T07:01:43.190Z,80.34
2019-04-14T07:02:14.374Z,80.32
2019-04-14T07:02:48.094Z,80.07
2019-04-14T07:03:18.591Z,80.07
2019-04-14T07:03:49.786Z,79.65
2019-04-14T07:04:20.990Z,80.05
2019-04-14T07:04:52.194Z,79.83
2019-04-14T07:05:23.393Z,80.32
2019-04-14T07:05:54.594Z,80.16
2019-04-14T07:06:25.807Z,79.73
2019-04-14T07:06:57.011Z,79.92